Time;durP1;ratioP1;P1;durP2;ratioP2;P2;SDS_P1;SDS_P2;PMS_P1;PMS_P2;Temp;Humidity;BMP_temperature;BMP_pressure;BME280_temperature;BME280_humidity;BME280_pressure;Samples;Min_cycle;Max_cycle;Signal;HPM_P1;HPM_P2
2023/08/26 00:01:37;;;;;;;2.72;1.13;;;;;;;18.17;74.12;101002.22;5012386;28;96828;-26
2023/08/26 00:04:02;;;;;;;4.18;1.10;;;;;;;18.03;73.74;100987.88;5010724;28;99547;-27
2023/08/26 00:06:28;;;;;;;1.60;1.10;;;;;;;18.01;74.03;100989.03;5012730;28;97310;-26
2023/08/26 00:08:53;;;;;;;2.90;0.95;;;;;;;17.96;73.89;100994.06;5012662;28;96570;-26
2023/08/26 00:11:18;;;;;;;3.60;1.27;;;;;;;17.94;73.90;101005.16;5012743;28;96793;-29
2023/08/26 00:13:44;;;;;;;3.92;0.95;;;;;;;17.89;74.26;101004.72;5012268;28;97435;-27
2023/08/26 00:16:11;;;;;;;1.42;0.63;;;;;;;17.89;74.12;100999.22;5011726;28;97344;-26
2023/08/26 00:18:37;;;;;;;1.67;0.68;;;;;;;17.83;73.72;100986.09;5010365;28;96744;-26
2023/08/26 00:21:03;;;;;;;3.72;1.10;;;;;;;17.87;74.18;100995.75;5012486;28;96771;-26
2023/08/26 00:23:31;;;;;;;6.18;1.00;;;;;;;17.77;74.20;100989.34;5010815;28;99335;-26
2023/08/26 00:25:56;;;;;;;1.58;0.80;;;;;;;17.74;74.32;100995.09;5010671;28;101261;-26
2023/08/26 00:28:21;;;;;;;2.83;0.77;;;;;;;17.66;74.46;100993.03;5012083;28;96817;-26
2023/08/26 00:30:56;;;;;;;0.82;0.68;;;;;;;17.65;74.46;100988.56;5012677;28;96840;-27
2023/08/26 00:33:21;;;;;;;2.80;0.70;;;;;;;17.67;74.17;100983.81;5010641;28;98864;-27
2023/08/26 00:35:47;;;;;;;3.22;0.93;;;;;;;17.65;74.41;100980.34;5012374;28;97222;-26
2023/08/26 00:38:12;;;;;;;1.38;0.70;;;;;;;17.61;74.08;100981.63;5011526;28;96608;-27
2023/08/26 00:40:37;;;;;;;1.88;0.68;;;;;;;17.51;74.46;100973.34;5012068;28;96803;-26
2023/08/26 00:43:08;;;;;;;1.30;0.60;;;;;;;17.53;74.76;100987.78;5011867;28;98338;-26
2023/08/26 00:45:35;;;;;;;2.03;0.70;;;;;;;17.44;74.45;100987.72;5011784;28;98200;-26
2023/08/26 00:48:00;;;;;;;2.42;0.63;;;;;;;17.40;74.93;100984.41;5010535;28;96667;-26
2023/08/26 00:50:26;;;;;;;1.30;0.70;;;;;;;17.33;74.68;100970.38;5012008;28;96657;-27
2023/08/26 00:52:53;;;;;;;1.83;0.63;;;;;;;17.36;74.53;100970.13;5010256;28;100059;-26
2023/08/26 00:55:20;;;;;;;0.88;0.50;;;;;;;17.35;74.78;100976.59;5010749;28;101870;-26
2023/08/26 00:57:45;;;;;;;1.70;0.57;;;;;;;17.39;74.77;100975.31;5010315;28;96629;-26
2023/08/26 01:00:11;;;;;;;2.40;0.70;;;;;;;17.43;75.03;100972.31;5011732;28;96778;-27
2023/08/26 01:02:37;;;;;;;2.25;1.00;;;;;;;17.31;74.60;100966.06;5011370;28;97491;-26
2023/08/26 01:05:05;;;;;;;1.52;0.70;;;;;;;17.34;74.97;100976.72;5011699;28;98068;-26
2023/08/26 01:07:31;;;;;;;2.05;0.98;;;;;;;17.25;75.00;100978.41;5010394;28;96873;-26
2023/08/26 01:09:56;;;;;;;1.67;0.43;;;;;;;17.15;75.28;100974.75;5011831;28;96781;-27
2023/08/26 01:12:31;;;;;;;1.35;0.55;;;;;;;17.17;75.62;100998.22;5011393;28;99476;-27
2023/08/26 01:15:09;;;;;;;1.15;0.63;;;;;;;17.20;75.15;100984.28;5009381;28;101004;-27
2023/08/26 01:17:35;;;;;;;1.35;0.45;;;;;;;17.15;75.25;100975.59;5011905;28;96616;-27
2023/08/26 01:20:03;;;;;;;2.15;0.60;;;;;;;17.11;75.53;100976.00;5010466;28;96922;-26
2023/08/26 01:22:30;;;;;;;2.60;0.85;;;;;;;17.09;75.60;100969.78;5010005;28;101237;-27
2023/08/26 01:24:56;;;;;;;2.25;0.70;;;;;;;17.06;75.68;100972.78;5009954;28;100157;-27
2023/08/26 01:27:21;;;;;;;3.58;0.82;;;;;;;16.98;75.94;100966.13;5009472;28;96847;-28
2023/08/26 01:29:47;;;;;;;1.67;0.77;;;;;;;16.83;76.58;100961.09;5011449;28;96822;-29
2023/08/26 01:32:23;;;;;;;2.58;0.85;;;;;;;16.90;76.58;100963.19;5013581;28;99218;-26
2023/08/26 01:34:54;;;;;;;2.63;0.88;;;;;;;16.92;76.35;100966.66;5013382;28;100873;-26
2023/08/26 01:37:21;;;;;;;6.45;1.10;;;;;;;16.91;76.50;100958.59;5013563;28;96707;-26
2023/08/26 01:39:48;;;;;;;1.05;0.70;;;;;;;16.87;76.57;100965.31;5012968;28;96927;-27
2023/08/26 01:42:16;;;;;;;0.93;0.55;;;;;;;16.84;76.72;100980.13;5014710;28;97651;-26
2023/08/26 01:44:42;;;;;;;1.73;1.10;;;;;;;16.79;76.59;100974.19;5014778;28;98036;-28
2023/08/26 01:47:07;;;;;;;2.00;1.00;;;;;;;16.65;76.90;100969.84;5014745;28;96688;-27
2023/08/26 01:49:33;;;;;;;1.90;0.90;;;;;;;16.69;76.80;100973.22;5014643;28;96807;-27
2023/08/26 01:51:58;;;;;;;2.85;1.27;;;;;;;16.60;77.25;100971.25;5014079;28;97896;-27
2023/08/26 01:54:24;;;;;;;2.63;1.30;;;;;;;16.63;76.91;100971.00;5014318;28;99266;-27
2023/08/26 01:56:49;;;;;;;1.35;0.77;;;;;;;16.64;76.87;100967.28;5014416;28;96517;-26
2023/08/26 01:59:14;;;;;;;3.88;1.25;;;;;;;16.65;77.31;100966.25;5014520;28;96793;-26
2023/08/26 02:01:40;;;;;;;1.20;0.60;;;;;;;16.59;77.04;100962.19;5014771;28;97436;-26
2023/08/26 02:04:05;;;;;;;2.50;0.93;;;;;;;16.65;77.37;100963.53;5014451;28;97271;-27
2023/08/26 02:06:30;;;;;;;1.20;0.80;;;;;;;16.59;77.61;100958.56;5014556;28;96437;-26
2023/08/26 02:08:56;;;;;;;3.13;0.70;;;;;;;16.60;77.45;100960.31;5014695;28;96908;-27
2023/08/26 02:11:21;;;;;;;2.70;1.23;;;;;;;16.64;77.12;100959.94;5014224;28;97569;-27
2023/08/26 02:13:47;;;;;;;2.92;0.88;;;;;;;16.60;77.76;100976.72;5014256;28;97318;-27
2023/08/26 02:16:12;;;;;;;1.48;0.68;;;;;;;16.48;78.14;100971.28;5013492;28;96622;-26
2023/08/26 02:18:38;;;;;;;3.28;0.95;;;;;;;16.45;77.68;100963.34;5012857;28;96885;-27
2023/08/26 02:21:04;;;;;;;1.05;0.57;;;;;;;16.50;78.00;100976.66;5014037;28;98066;-26
2023/08/26 02:23:29;;;;;;;2.53;0.85;;;;;;;16.50;77.53;100972.03;5012375;28;101234;-28
2023/08/26 02:25:55;;;;;;;3.17;0.82;;;;;;;16.51;77.84;100976.50;5014273;28;96657;-27
2023/08/26 02:28:20;;;;;;;1.90;0.80;;;;;;;16.43;78.37;100978.16;5014168;28;96809;-27
2023/08/26 02:30:45;;;;;;;3.15;1.05;;;;;;;16.42;78.17;100973.66;5013904;28;97909;-26
2023/08/26 02:33:11;;;;;;;2.35;1.20;;;;;;;16.40;77.88;100982.03;5014124;28;99213;-27
2023/08/26 02:35:36;;;;;;;3.38;0.73;;;;;;;16.31;78.42;100974.59;5014300;28;97089;-27
2023/08/26 02:38:01;;;;;;;1.50;0.80;;;;;;;16.33;78.27;100964.41;5013880;28;96791;-30
2023/08/26 02:40:27;;;;;;;1.55;0.68;;;;;;;16.33;78.30;100969.88;5011747;28;99462;-27
2023/08/26 02:42:52;;;;;;;1.05;0.95;;;;;;;16.28;78.42;100964.78;5013312;28;99913;-26
2023/08/26 02:45:18;;;;;;;2.50;0.80;;;;;;;16.37;78.55;100978.66;5013984;28;96449;-26
2023/08/26 02:47:43;;;;;;;1.25;0.65;;;;;;;16.26;78.61;100968.66;5013607;28;96838;-27
2023/08/26 02:50:09;;;;;;;1.38;1.00;;;;;;;16.24;78.78;100978.84;5013704;28;97835;-26
2023/08/26 02:52:34;;;;;;;4.57;0.82;;;;;;;16.19;79.51;100968.28;5013522;28;97233;-26
2023/08/26 02:55:00;;;;;;;1.48;0.77;;;;;;;16.22;79.25;100976.22;5013661;28;96717;-27
2023/08/26 02:57:26;;;;;;;1.20;0.88;;;;;;;16.18;78.91;100972.00;5012563;28;96823;-26
2023/08/26 02:59:51;;;;;;;2.00;0.70;;;;;;;16.10;79.34;100967.16;5013343;28;99250;-26
2023/08/26 03:02:16;;;;;;;2.85;0.73;;;;;;;16.13;79.54;100974.25;5013440;28;97776;-26
2023/08/26 03:04:45;;;;;;;4.15;1.20;;;;;;;16.09;79.17;100967.31;5013096;28;96593;-26
2023/08/26 03:07:11;;;;;;;4.55;1.10;;;;;;;16.05;79.58;100965.84;5012055;28;96915;-27
2023/08/26 03:09:36;;;;;;;1.25;0.70;;;;;;;15.99;79.92;100972.66;5012958;28;100017;-27
2023/08/26 03:12:01;;;;;;;2.55;0.70;;;;;;;16.02;79.71;100966.09;5013438;28;98436;-27
2023/08/26 03:14:27;;;;;;;1.45;0.75;;;;;;;16.02;79.62;100963.34;5012985;28;96492;-26
2023/08/26 03:16:52;;;;;;;2.60;1.25;;;;;;;16.03;79.50;100971.41;5013147;28;96806;-27
2023/08/26 03:19:18;;;;;;;2.22;1.05;;;;;;;15.95;79.81;100960.25;5013176;28;97922;-28
2023/08/26 03:21:44;;;;;;;2.75;0.70;;;;;;;15.96;79.54;100959.25;5013510;28;97728;-27
2023/08/26 03:24:15;;;;;;;1.10;0.90;;;;;;;15.99;79.99;100961.72;5011649;28;96660;-26
2023/08/26 03:26:40;;;;;;;1.00;0.70;;;;;;;15.97;79.59;100982.88;5013084;28;96770;-26
2023/08/26 03:29:05;;;;;;;0.57;0.57;;;;;;;15.87;80.21;100960.91;5012650;28;97377;-27
2023/08/26 03:31:31;;;;;;;2.67;0.98;;;;;;;15.91;79.71;100959.63;5013125;28;97271;-26
2023/08/26 03:33:56;;;;;;;0.88;0.75;;;;;;;15.90;79.69;100967.97;5013123;28;97215;-27
2023/08/26 03:36:22;;;;;;;1.70;0.85;;;;;;;15.88;80.40;100959.88;5013071;28;96762;-27
2023/08/26 03:38:47;;;;;;;2.03;0.95;;;;;;;15.92;79.97;100960.50;5012201;28;99276;-26
2023/08/26 03:41:12;;;;;;;1.70;0.88;;;;;;;15.90;79.58;100970.69;5012654;28;99276;-27
2023/08/26 03:43:38;;;;;;;0.70;0.40;;;;;;;15.87;79.99;100969.09;5012972;28;96537;-27
2023/08/26 03:46:04;;;;;;;0.95;0.70;;;;;;;15.88;79.88;100970.81;5013026;28;96817;-27
2023/08/26 03:48:30;;;;;;;2.75;0.88;;;;;;;15.87;79.99;100968.19;5012692;28;99322;-27
2023/08/26 03:50:56;;;;;;;5.22;0.80;;;;;;;15.80;79.79;100962.41;5012647;28;97802;-26
2023/08/26 03:53:22;;;;;;;1.85;0.85;;;;;;;15.75;79.64;100963.75;5010222;28;96991;-27
2023/08/26 03:55:48;;;;;;;1.67;0.70;;;;;;;15.74;79.99;100971.06;5012771;28;96837;-26
2023/08/26 03:58:13;;;;;;;2.00;1.02;;;;;;;15.75;80.20;100967.34;5012576;28;97467;-27
2023/08/26 04:00:39;;;;;;;2.97;0.88;;;;;;;15.81;79.53;100976.91;5011127;28;100698;-27
2023/08/26 04:03:07;;;;;;;3.50;0.85;;;;;;;15.75;80.03;100983.72;5012457;28;96531;-26
2023/08/26 04:05:33;;;;;;;0.93;0.63;;;;;;;15.71;79.89;100974.06;5012601;28;96779;-27
2023/08/26 04:08:02;;;;;;;1.00;0.77;;;;;;;15.71;79.76;100974.06;5011025;28;100975;-27
2023/08/26 04:10:28;;;;;;;1.23;0.80;;;;;;;15.70;80.47;100981.38;5012616;28;97355;-27
2023/08/26 04:12:53;;;;;;;1.95;0.90;;;;;;;15.68;79.99;100974.25;5012296;28;96493;-26
2023/08/26 04:15:19;;;;;;;1.17;0.75;;;;;;;15.73;80.31;100979.38;5011575;28;96840;-26
2023/08/26 04:17:45;;;;;;;1.02;0.73;;;;;;;15.67;79.75;100972.53;5011687;28;99287;-27
2023/08/26 04:20:13;;;;;;;1.10;0.77;;;;;;;15.64;80.32;100980.97;5012136;28;97901;-27
2023/08/26 04:22:39;;;;;;;2.97;1.10;;;;;;;15.64;80.50;100986.44;5010854;28;96581;-27
2023/08/26 04:25:05;;;;;;;0.50;0.50;;;;;;;15.62;80.65;100985.69;5012527;28;96771;-27
2023/08/26 04:27:33;;;;;;;0.75;0.63;;;;;;;15.54;81.16;100991.78;5010656;28;102375;-26
2023/08/26 04:29:58;;;;;;;2.05;0.93;;;;;;;15.51;81.01;100983.81;5010455;28;100723;-26
2023/08/26 04:32:24;;;;;;;0.90;0.80;;;;;;;15.53;80.39;100987.28;5010644;28;96577;-27
2023/08/26 04:34:49;;;;;;;0.60;0.50;;;;;;;15.52;80.90;100993.75;5012459;28;96870;-27
2023/08/26 04:37:14;;;;;;;1.90;0.98;;;;;;;15.49;80.91;100996.72;5011815;28;99296;-27
2023/08/26 04:39:40;;;;;;;1.33;0.68;;;;;;;15.56;80.98;100991.63;5011811;28;97742;-27
2023/08/26 04:42:05;;;;;;;1.13;0.90;;;;;;;15.55;80.68;100988.03;5011635;28;96487;-27
2023/08/26 04:44:31;;;;;;;1.38;0.95;;;;;;;15.57;81.18;101005.19;5012296;28;96802;-27
2023/08/26 04:46:56;;;;;;;1.23;0.70;;;;;;;15.48;80.79;101000.44;5010400;28;98057;-27
2023/08/26 04:49:21;;;;;;;1.67;0.63;;;;;;;15.49;81.39;101003.06;5011910;28;97777;-27
2023/08/26 04:51:52;;;;;;;2.47;0.68;;;;;;;15.40;81.49;100998.34;5011883;28;96578;-26
2023/08/26 04:54:18;;;;;;;1.27;0.73;;;;;;;15.42;81.49;101003.66;5010441;28;96818;-27
2023/08/26 04:56:43;;;;;;;2.75;1.13;;;;;;;15.40;81.21;101012.00;5011817;28;97981;-27
2023/08/26 04:59:09;;;;;;;3.53;0.73;;;;;;;15.46;81.66;101005.16;5012122;28;97850;-26
2023/08/26 05:01:34;;;;;;;1.90;1.00;;;;;;;15.41;81.74;101019.16;5012094;28;96566;-26
2023/08/26 05:03:59;;;;;;;3.35;1.20;;;;;;;15.38;81.95;101016.69;5011712;28;96751;-26
2023/08/26 05:06:24;;;;;;;2.60;0.80;;;;;;;15.39;81.74;101012.97;5012604;28;97642;-27
2023/08/26 05:08:50;;;;;;;5.43;0.75;;;;;;;15.44;82.01;101009.88;5015120;28;97205;-26
2023/08/26 05:11:15;;;;;;;1.73;0.77;;;;;;;15.54;81.62;101027.28;5015430;28;96523;-27
2023/08/26 05:13:40;;;;;;;1.80;0.85;;;;;;;15.62;81.12;101037.56;5015333;28;96763;-28
2023/08/26 05:16:06;;;;;;;0.98;0.80;;;;;;;15.49;81.71;101019.44;5014219;28;97877;-26
2023/08/26 05:18:31;;;;;;;1.23;0.63;;;;;;;15.45;81.89;101014.34;5013614;28;101148;-27
2023/08/26 05:20:57;;;;;;;4.43;1.00;;;;;;;15.43;81.66;101013.59;5015039;28;96575;-26
2023/08/26 05:23:22;;;;;;;2.33;0.73;;;;;;;15.49;81.86;101034.94;5015634;28;96768;-27
2023/08/26 05:25:47;;;;;;;1.88;0.75;;;;;;;15.50;81.88;101020.31;5015124;28;99720;-27
2023/08/26 05:28:13;;;;;;;2.15;0.80;;;;;;;15.50;81.91;101021.19;5015000;28;97817;-28
2023/08/26 05:30:39;;;;;;;2.10;0.70;;;;;;;15.53;82.23;101027.38;5014403;28;96477;-26
2023/08/26 05:33:05;;;;;;;2.08;1.10;;;;;;;15.52;82.63;101029.25;5015345;28;96792;-27
2023/08/26 05:35:31;;;;;;;2.92;0.90;;;;;;;15.56;82.41;101019.81;5014140;28;99661;-26
2023/08/26 05:37:56;;;;;;;1.20;0.40;;;;;;;15.57;82.41;101018.84;5012801;28;101126;-27
2023/08/26 05:40:26;;;;;;;1.77;0.70;;;;;;;15.64;81.83;101019.22;5013215;28;97091;-28
2023/08/26 05:42:54;;;;;;;1.58;0.80;;;;;;;15.71;82.27;101017.75;4995291;28;97004;-28
2023/08/26 05:45:20;;;;;;;2.97;0.77;;;;;;;15.70;82.53;101024.19;5011436;28;100833;-27
2023/08/26 05:47:45;;;;;;;1.80;0.60;;;;;;;15.71;82.83;101009.56;5014957;28;97236;-27
2023/08/26 05:50:10;;;;;;;1.48;0.93;;;;;;;15.75;82.98;101018.38;5014717;28;96473;-27
2023/08/26 05:52:36;;;;;;;2.90;1.02;;;;;;;15.74;83.06;101012.03;5015114;28;96850;-27
2023/08/26 05:55:01;;;;;;;5.38;1.00;;;;;;;15.82;82.44;101003.22;5014125;28;98325;-26
2023/08/26 05:57:26;;;;;;;2.35;1.30;;;;;;;15.87;82.22;101003.72;5014519;28;97723;-27
2023/08/26 05:59:52;;;;;;;1.80;1.00;;;;;;;15.96;81.92;101007.56;5014044;28;97189;-27
2023/08/26 06:02:17;;;;;;;1.25;0.68;;;;;;;16.00;82.22;101006.34;5011808;28;97237;-27
2023/08/26 06:04:42;;;;;;;2.83;1.20;;;;;;;15.99;82.26;100999.09;5011777;28;99335;-32
2023/08/26 06:07:08;;;;;;;1.77;1.00;;;;;;;15.99;82.07;100989.03;5011795;28;99107;-27
2023/08/26 06:09:33;;;;;;;5.88;1.05;;;;;;;16.04;81.90;100992.28;5011912;28;97116;-27
2023/08/26 06:11:58;;;;;;;3.28;0.90;;;;;;;16.05;82.22;100976.75;5012355;28;97023;-28
2023/08/26 06:14:24;;;;;;;1.27;0.68;;;;;;;16.03;81.94;100967.81;5011487;28;99875;-27
2023/08/26 06:16:49;;;;;;;3.03;1.08;;;;;;;16.07;81.86;100963.84;5012530;28;99111;-27
2023/08/26 06:19:15;;;;;;;1.85;0.82;;;;;;;16.10;81.78;100974.50;5013562;28;96672;-27
2023/08/26 06:21:40;;;;;;;1.13;0.85;;;;;;;16.14;81.88;100979.59;5014265;28;96748;-26
2023/08/26 06:24:06;;;;;;;1.95;0.98;;;;;;;16.20;81.75;100983.66;5014093;28;98286;-27
2023/08/26 06:26:31;;;;;;;1.95;0.60;;;;;;;16.30;81.09;100997.44;5014133;28;97944;-27
2023/08/26 06:28:56;;;;;;;3.95;1.05;;;;;;;16.37;80.91;101004.13;5013985;28;96444;-28
2023/08/26 06:31:22;;;;;;;3.40;0.85;;;;;;;16.53;80.59;101017.41;5014147;28;96746;-28
2023/08/26 06:33:48;;;;;;;1.58;0.88;;;;;;;16.63;80.65;101033.91;5013592;28;99458;-28
2023/08/26 06:36:13;;;;;;;2.72;1.05;;;;;;;16.72;80.31;101035.88;5014033;28;99260;-27
2023/08/26 06:38:39;;;;;;;3.08;1.08;;;;;;;16.93;80.38;101045.00;5013813;28;96508;-27
2023/08/26 06:41:04;;;;;;;1.65;0.80;;;;;;;17.00;80.06;101053.56;5013966;28;96834;-27
2023/08/26 06:43:29;;;;;;;2.65;0.98;;;;;;;17.01;79.90;101057.16;5013474;28;97846;-28
2023/08/26 06:45:57;;;;;;;2.13;1.10;;;;;;;17.04;79.40;101054.16;5013537;28;99164;-26
2023/08/26 06:48:23;;;;;;;1.75;0.82;;;;;;;16.77;80.04;101050.00;5012263;28;96711;-26
2023/08/26 06:50:49;;;;;;;0.38;0.38;;;;;;;16.71;80.35;101048.69;5013635;28;96811;-27
2023/08/26 06:53:21;;;;;;;0.65;0.63;;;;;;;16.60;80.32;101043.22;5012240;28;100685;-26
2023/08/26 06:55:55;;;;;;;2.85;0.65;;;;;;;16.69;79.81;101045.19;5012156;28;100956;-26
2023/08/26 06:58:23;;;;;;;0.63;0.47;;;;;;;16.71;79.79;101047.81;5013891;28;96827;-27
2023/08/26 07:00:48;;;;;;;4.35;0.90;;;;;;;16.88;79.11;101047.28;5012216;28;96869;-27
2023/08/26 07:03:14;;;;;;;1.13;0.63;;;;;;;17.03;78.74;101053.31;5013487;28;97910;-27
2023/08/26 07:05:44;;;;;;;5.88;1.02;;;;;;;17.07;78.51;101045.72;5013323;28;97879;-31
2023/08/26 07:08:09;;;;;;;1.38;0.75;;;;;;;17.21;77.95;101048.13;5011526;28;97047;-27
2023/08/26 07:10:34;;;;;;;1.00;0.70;;;;;;;17.37;77.03;101045.78;5013422;28;96872;-26
2023/08/26 07:13:00;;;;;;;1.13;0.70;;;;;;;17.46;76.31;101051.47;5013487;28;97492;-26
2023/08/26 07:15:25;;;;;;;1.90;0.70;;;;;;;17.54;75.70;101043.44;5012773;28;97964;-27
2023/08/26 07:17:51;;;;;;;1.17;0.70;;;;;;;17.70;75.80;101048.44;5013613;28;96811;-28
2023/08/26 07:20:17;;;;;;;0.82;0.77;;;;;;;17.91;75.39;101043.81;5011799;28;96913;-28
2023/08/26 07:22:43;;;;;;;1.15;0.80;;;;;;;18.07;74.03;101042.41;5012932;28;99530;-26
2023/08/26 07:25:08;;;;;;;2.58;0.93;;;;;;;18.12;73.61;101046.50;5013475;28;97289;-26
2023/08/26 07:27:34;;;;;;;1.83;0.85;;;;;;;18.25;72.94;101046.25;5013076;28;96560;-27
2023/08/26 07:30:00;;;;;;;2.42;0.93;;;;;;;18.30;72.80;101041.19;5011693;28;96807;-27
2023/08/26 07:32:25;;;;;;;1.30;0.68;;;;;;;18.30;73.24;101038.47;5012514;28;97954;-27
2023/08/26 07:34:52;;;;;;;3.80;1.23;;;;;;;18.50;72.32;101036.66;5011538;28;97913;-27
2023/08/26 07:37:17;;;;;;;2.10;0.98;;;;;;;18.63;72.28;101044.59;5010965;28;96698;-27
2023/08/26 07:39:42;;;;;;;3.10;0.95;;;;;;;18.79;72.53;101033.97;5011699;28;96847;-27
2023/08/26 07:42:08;;;;;;;3.38;0.80;;;;;;;18.98;71.34;101040.50;5012500;28;99577;-26
2023/08/26 07:44:33;;;;;;;0.45;0.43;;;;;;;19.06;70.36;101038.72;5012578;28;97335;-28
2023/08/26 07:46:58;;;;;;;2.63;0.77;;;;;;;19.26;70.35;101041.50;5013039;28;96684;-28
2023/08/26 07:49:24;;;;;;;1.23;0.70;;;;;;;19.32;69.07;101035.41;5013042;28;96823;-28
2023/08/26 07:51:49;;;;;;;1.08;0.70;;;;;;;19.39;68.48;101032.94;5012500;28;99430;-26
2023/08/26 07:54:14;;;;;;;1.15;0.73;;;;;;;19.42;66.81;101038.97;5012388;28;98912;-26
2023/08/26 07:56:40;;;;;;;1.38;0.82;;;;;;;19.49;67.58;101036.53;5012329;28;96738;-27
2023/08/26 07:59:05;;;;;;;1.00;0.73;;;;;;;19.58;66.51;101026.53;5012685;28;96800;-27
2023/08/26 08:01:31;;;;;;;1.63;1.08;;;;;;;19.70;67.60;101039.09;5012407;28;99038;-26
2023/08/26 08:03:56;;;;;;;2.65;1.10;;;;;;;19.98;66.75;101034.53;5012612;28;97240;-27
2023/08/26 08:06:21;;;;;;;1.67;0.65;;;;;;;19.99;65.18;101041.75;5012853;28;96465;-27
2023/08/26 08:08:47;;;;;;;3.17;0.70;;;;;;;19.81;66.52;101054.56;5012743;28;96801;-27
2023/08/26 08:11:12;;;;;;;1.50;0.80;;;;;;;19.69;66.83;101054.75;5012326;28;97995;-27
2023/08/26 08:13:37;;;;;;;2.47;0.80;;;;;;;19.51;66.42;101054.59;5011454;28;97804;-28
2023/08/26 08:16:03;;;;;;;1.30;0.70;;;;;;;19.35;66.95;101053.47;5011107;28;96850;-26
2023/08/26 08:18:28;;;;;;;1.23;0.73;;;;;;;19.23;67.18;101055.50;5011696;28;96865;-27
2023/08/26 08:20:54;;;;;;;1.65;0.70;;;;;;;18.97;68.17;101058.81;5011460;28;99514;-27
2023/08/26 08:23:20;;;;;;;0.98;0.60;;;;;;;18.85;68.59;101062.72;5012034;28;99113;-27
2023/08/26 08:25:45;;;;;;;1.50;0.70;;;;;;;18.85;69.26;101057.22;5012314;28;96630;-27
2023/08/26 08:28:10;;;;;;;1.63;0.77;;;;;;;18.75;69.05;101056.31;5012314;28;96773;-27
2023/08/26 08:30:36;;;;;;;1.90;0.60;;;;;;;18.60;70.01;101051.25;5012190;28;97464;-26
2023/08/26 08:33:01;;;;;;;2.13;1.08;;;;;;;18.82;69.95;101060.25;5012180;28;97283;-27
2023/08/26 08:35:26;;;;;;;1.08;0.60;;;;;;;19.16;69.01;101060.69;5012250;28;96486;-26
2023/08/26 08:37:52;;;;;;;1.52;0.80;;;;;;;19.09;68.87;101052.19;5012184;28;96899;-26
2023/08/26 08:40:17;;;;;;;3.20;0.60;;;;;;;18.93;67.97;101060.13;5011420;28;99256;-27
2023/08/26 08:42:44;;;;;;;0.60;0.55;;;;;;;18.69;68.80;101063.25;5012155;28;97197;-27
2023/08/26 08:45:11;;;;;;;1.30;0.70;;;;;;;18.52;70.01;101069.41;5010064;28;97508;-26
2023/08/26 08:47:37;;;;;;;2.65;1.08;;;;;;;18.43;70.96;101062.91;5010555;28;97010;-27
2023/08/26 08:50:03;;;;;;;2.88;0.93;;;;;;;18.52;70.70;101077.63;5011637;28;99307;-26
2023/08/26 08:52:29;;;;;;;2.05;0.63;;;;;;;18.70;70.35;101069.59;5010395;28;101751;-27
2023/08/26 08:54:55;;;;;;;0.90;0.57;;;;;;;18.74;70.08;101071.06;5011973;28;96462;-27
2023/08/26 08:57:24;;;;;;;1.15;0.75;;;;;;;18.58;70.31;101061.50;5011654;28;96820;-28
2023/08/26 08:59:50;;;;;;;1.42;0.70;;;;;;;18.67;70.81;101068.03;5010282;28;101056;-32
2023/08/26 09:02:16;;;;;;;1.45;0.90;;;;;;;18.65;70.00;101078.25;5010730;28;100699;-26
2023/08/26 09:04:42;;;;;;;2.13;0.98;;;;;;;18.65;69.89;101067.28;5010395;28;96626;-27
2023/08/26 09:07:11;;;;;;;0.98;0.60;;;;;;;18.87;69.78;101078.03;5010382;28;96811;-26
2023/08/26 09:09:37;;;;;;;1.85;0.95;;;;;;;19.02;69.25;101083.09;5009634;28;101227;-26
2023/08/26 09:12:04;;;;;;;2.35;0.80;;;;;;;19.18;69.40;101085.28;5011523;28;97365;-26
2023/08/26 09:14:29;;;;;;;1.55;0.70;;;;;;;19.29;68.52;101083.25;5011432;28;97401;-27
2023/08/26 09:16:56;;;;;;;1.83;0.68;;;;;;;19.59;68.49;101077.72;5010911;28;96940;-26
2023/08/26 09:19:21;;;;;;;1.70;0.60;;;;;;;19.61;68.17;101082.03;5010074;28;101228;-27
2023/08/26 09:21:47;;;;;;;0.80;0.70;;;;;;;19.63;67.13;101085.53;5011535;28;97779;-26
2023/08/26 09:24:14;;;;;;;0.85;0.70;;;;;;;19.63;67.30;101077.28;5011540;28;97196;-27
2023/08/26 09:26:41;;;;;;;2.25;0.77;;;;;;;19.84;68.07;101087.25;5010103;28;96865;-26
2023/08/26 09:29:20;;;;;;;0.80;0.80;;;;;;;20.27;67.19;101088.53;5009904;28;101236;-26
2023/08/26 09:31:49;;;;;;;2.88;0.80;;;;;;;20.32;66.73;101089.81;5010143;28;100980;-27
2023/08/26 09:34:32;;;;;;;1.35;0.90;;;;;;;20.50;65.70;101089.88;5009441;28;97765;-26
2023/08/26 09:36:58;;;;;;;0.63;0.63;;;;;;;20.81;65.03;101072.16;5010971;28;96678;-26
2023/08/26 09:39:23;;;;;;;0.80;0.70;;;;;;;21.15;64.22;101080.63;5009592;28;100972;-26
2023/08/26 09:41:49;;;;;;;1.83;0.93;;;;;;;21.28;61.88;101074.69;5011266;28;97846;-27
2023/08/26 09:44:17;;;;;;;1.92;0.90;;;;;;;21.39;63.88;101079.97;5010094;28;96638;-26
2023/08/26 09:46:43;;;;;;;0.85;0.65;;;;;;;21.50;63.63;101077.00;5010039;28;96930;-27
2023/08/26 09:49:16;;;;;;;1.23;0.90;;;;;;;21.14;61.37;101084.38;5009763;28;101460;-27
2023/08/26 09:51:50;;;;;;;1.08;0.75;;;;;;;20.91;63.91;101086.75;5010338;28;100967;-26
2023/08/26 09:54:21;;;;;;;2.30;0.52;;;;;;;21.12;62.15;101083.69;5014361;28;96499;-27
2023/08/26 09:56:48;;;;;;;1.60;0.75;;;;;;;21.34;62.99;101102.50;5008692;28;96984;-27
2023/08/26 09:59:17;;;;;;;1.30;0.80;;;;;;;21.09;62.59;101090.38;4997972;28;97644;-27
2023/08/26 10:01:43;;;;;;;1.20;0.90;;;;;;;21.31;63.50;101088.16;4991808;28;101028;-27
2023/08/26 10:04:15;;;;;;;1.85;0.70;;;;;;;21.78;63.28;101088.72;4993009;28;97063;-27
2023/08/26 10:06:42;;;;;;;3.15;1.05;;;;;;;22.12;62.25;101085.19;4994454;28;96773;-27
2023/08/26 10:09:24;;;;;;;2.40;1.00;;;;;;;22.40;60.72;101074.78;4992983;28;101167;-27
2023/08/26 10:11:54;;;;;;;1.35;0.85;;;;;;;22.43;59.02;101077.25;4992734;28;100833;-26
2023/08/26 10:14:22;;;;;;;1.17;0.50;;;;;;;22.33;59.47;101070.97;4992299;28;96610;-26
2023/08/26 10:16:50;;;;;;;0.70;0.60;;;;;;;22.43;60.11;101079.16;4990310;28;96918;-27
2023/08/26 10:19:16;;;;;;;0.98;0.68;;;;;;;22.38;59.71;101079.66;4990211;28;100719;-30
2023/08/26 10:21:43;;;;;;;4.38;0.98;;;;;;;22.68;59.47;101058.84;4991675;28;97310;-28
2023/08/26 10:24:08;;;;;;;0.88;0.60;;;;;;;22.32;58.64;101066.50;4989606;28;97042;-32
2023/08/26 10:26:34;;;;;;;1.23;0.65;;;;;;;22.08;60.22;101069.09;4991675;28;96951;-27
2023/08/26 10:29:00;;;;;;;5.80;0.90;;;;;;;22.24;60.16;101066.47;4989837;28;100993;-28
2023/08/26 10:31:33;;;;;;;0.75;0.52;;;;;;;22.48;59.27;101058.28;4991505;28;99350;-26
2023/08/26 10:34:06;;;;;;;0.55;0.50;;;;;;;22.54;58.67;101064.16;4992765;28;96748;-27
2023/08/26 10:36:35;;;;;;;1.08;0.47;;;;;;;22.62;55.01;101056.78;4992697;28;96858;-27
2023/08/26 10:39:00;;;;;;;1.00;0.47;;;;;;;22.78;57.16;101064.22;4992181;28;100948;-26
2023/08/26 10:41:26;;;;;;;0.63;0.32;;;;;;;22.99;56.09;101051.88;4994143;28;97349;-26
2023/08/26 10:43:58;;;;;;;2.15;0.50;;;;;;;23.43;55.45;101057.94;4992520;28;96562;-27
2023/08/26 10:46:35;;;;;;;;;;;;;;;23.40;54.10;101065.72;4992752;28;96588;-27
2023/08/26 10:49:03;;;;;;;0.60;0.60;;;;;;;23.65;55.28;101058.28;4993497;28;97444;-28
2023/08/26 10:51:30;;;;;;;1.10;0.63;;;;;;;23.58;54.33;101069.16;4992161;28;100865;-26
2023/08/26 10:54:04;;;;;;;2.55;0.80;;;;;;;23.52;55.03;101058.78;4992154;28;96687;-35
2023/08/26 10:56:33;;;;;;;1.77;0.47;;;;;;;22.98;54.72;101061.19;5008079;28;97236;-28
2023/08/26 10:59:03;;;;;;;0.95;0.60;;;;;;;22.59;55.49;101070.03;5010796;28;100872;-28
2023/08/26 11:01:38;;;;;;;3.42;0.88;;;;;;;22.21;56.77;101075.06;5011702;28;101037;-27
2023/08/26 11:04:04;;;;;;;1.70;0.63;;;;;;;21.76;57.32;101070.63;5013718;28;96567;-27
2023/08/26 11:06:35;;;;;;;2.88;0.75;;;;;;;21.93;57.15;101075.25;5013582;28;96801;-27
2023/08/26 11:09:01;;;;;;;0.67;0.40;;;;;;;22.36;55.02;101062.38;5012064;28;101225;-27
2023/08/26 11:11:26;;;;;;;1.10;0.70;;;;;;;22.65;55.18;101066.63;5013327;28;97265;-28
2023/08/26 11:13:51;;;;;;;0.50;0.32;;;;;;;22.86;54.51;101058.72;5013000;28;96556;-27
2023/08/26 11:16:17;;;;;;;0.82;0.50;;;;;;;23.01;54.98;101053.44;5012686;28;96859;-27
2023/08/26 11:18:43;;;;;;;1.50;0.65;;;;;;;23.39;55.02;101053.78;5011670;28;98993;-26
2023/08/26 11:21:09;;;;;;;1.65;0.70;;;;;;;23.56;54.20;101046.34;5013173;28;97625;-27